Time;durP1;ratioP1;P1;durP2;ratioP2;P2;SDS_P1;SDS_P2;PMS_P1;PMS_P2;Temp;Humidity;BMP_temperature;BMP_pressure;BME280_temperature;BME280_humidity;BME280_pressure;Samples;Min_cycle;Max_cycle;Signal;HPM_P1;HPM_P2
2022/04/26 03:37:47;;;;;;;4.65;1.85;;;;;;;;;;10399500;27;20090;-61
2022/04/26 03:42:45;;;;;;;7.57;1.67;;;;;;;;;;10428995;27;20518;-60
2022/04/26 03:47:45;;;;;;;4.95;1.63;;;;;;;;;;10426078;27;20067;-61
2022/04/26 03:52:43;;;;;;;2.00;1.50;;;;;;;;;;10438318;27;20071;-61
2022/04/26 03:57:42;;;;;;;6.43;1.80;;;;;;;;;;10437870;27;20047;-61
2022/04/26 04:02:40;;;;;;;7.18;2.35;;;;;;;;;;10436644;27;20051;-62
2022/04/26 04:07:40;;;;;;;4.50;2.17;;;;;;;;;;10437083;28;20109;-61
2022/04/26 04:12:39;;;;;;;9.15;2.30;;;;;;;;;;10427450;28;20077;-62
2022/04/26 04:17:37;;;;;;;17.02;13.20;;;;;;;;;;10437452;28;20066;-62
2022/04/26 04:22:36;;;;;;;9.02;4.88;;;;;;;;;;10436760;27;20051;-62
2022/04/26 04:27:35;;;;;;;13.80;10.77;;;;;;;;;;10437896;28;20039;-61
2022/04/26 04:32:33;;;;;;;5.90;4.32;;;;;;;;;;10430208;28;20082;-61
2022/04/26 04:37:32;;;;;;;5.55;3.17;;;;;;;;;;10430521;28;20063;-62
2022/04/26 04:42:30;;;;;;;8.98;2.75;;;;;;;;;;10433865;28;20524;-62
2022/04/26 04:47:30;;;;;;;9.98;3.90;;;;;;;;;;10436642;28;20063;-61
2022/04/26 04:52:28;;;;;;;5.47;2.30;;;;;;;;;;10431055;27;20067;-61
2022/04/26 04:57:26;;;;;;;8.38;2.38;;;;;;;;;;10442023;27;20067;-63
2022/04/26 05:02:25;;;;;;;6.65;4.38;;;;;;;;;;10439294;27;20074;-61
2022/04/26 05:07:25;;;;;;;4.43;2.72;;;;;;;;;;10442766;27;20507;-61
2022/04/26 05:12:23;;;;;;;6.10;3.60;;;;;;;;;;10433030;27;20134;-61
2022/04/26 05:17:22;;;;;;;6.15;2.42;;;;;;;;;;10443078;27;20082;-60
2022/04/26 05:22:20;;;;;;;6.43;2.53;;;;;;;;;;10432622;27;20305;-60
2022/04/26 05:27:20;;;;;;;5.13;2.40;;;;;;;;;;10428798;27;20066;-60
2022/04/26 05:32:21;;;;;;;7.05;3.05;;;;;;;;;;10437197;27;20085;-60
2022/04/26 05:37:19;;;;;;;6.95;3.70;;;;;;;;;;10420815;27;20078;-60
2022/04/26 05:42:18;;;;;;;7.43;3.58;;;;;;;;;;10423914;27;20083;-60
2022/04/26 05:47:17;;;;;;;7.75;2.92;;;;;;;;;;10439013;27;20117;-60
2022/04/26 05:52:15;;;;;;;3.40;2.63;;;;;;;;;;10426890;27;20078;-60
2022/04/26 05:57:15;;;;;;;4.60;2.03;;;;;;;;;;10439246;27;20085;-60
2022/04/26 06:02:13;;;;;;;9.38;2.85;;;;;;;;;;10440094;27;20074;-61
2022/04/26 06:07:13;;;;;;;7.60;2.47;;;;;;;;;;10433086;27;20472;-61
2022/04/26 06:12:11;;;;;;;5.82;3.00;;;;;;;;;;10436383;27;20067;-62
2022/04/26 06:17:09;;;;;;;3.30;2.85;;;;;;;;;;10416612;27;20612;-61
2022/04/26 06:22:07;;;;;;;45.42;35.90;;;;;;;;;;10439683;27;20058;-62
2022/04/26 06:27:07;;;;;;;9.32;3.80;;;;;;;;;;10434537;27;20067;-62
2022/04/26 06:32:06;;;;;;;31.08;24.42;;;;;;;;;;10433404;27;20062;-61
2022/04/26 06:37:04;;;;;;;8.90;5.90;;;;;;;;;;10433764;27;20456;-62
2022/04/26 06:42:02;;;;;;;5.82;4.45;;;;;;;;;;10439169;27;20043;-62
2022/04/26 06:47:02;;;;;;;3.47;2.67;;;;;;;;;;10440215;27;20074;-62
2022/04/26 06:52:00;;;;;;;4.72;2.42;;;;;;;;;;10438734;27;20067;-62
2022/04/26 06:56:59;;;;;;;3.30;2.55;;;;;;;;;;10439188;27;20066;-60
2022/04/26 07:01:57;;;;;;;5.35;2.53;;;;;;;;;;10439179;27;20066;-60
2022/04/26 07:06:57;;;;;;;6.10;2.10;;;;;;;;;;10439210;27;20035;-61
2022/04/26 07:11:55;;;;;;;4.53;2.53;;;;;;;;;;10438746;27;20062;-62
2022/04/26 07:16:54;;;;;;;8.90;2.47;;;;;;;;;;10438853;27;20043;-60
2022/04/26 07:21:52;;;;;;;5.85;2.95;;;;;;;;;;10438510;27;20038;-61
2022/04/26 07:27:03;;;;;;;6.07;2.40;;;;;;;;;;10438533;27;20063;-61
2022/04/26 07:32:01;;;;;;;6.18;2.10;;;;;;;;;;10438135;27;20067;-61
2022/04/26 07:37:02;;;;;;;4.45;2.22;;;;;;;;;;10438040;27;20097;-61
2022/04/26 07:42:01;;;;;;;3.08;2.45;;;;;;;;;;10436471;27;20101;-61
2022/04/26 07:47:01;;;;;;;4.05;2.35;;;;;;;;;;10437878;27;20042;-61
2022/04/26 07:52:00;;;;;;;5.82;2.50;;;;;;;;;;10428724;27;20071;-61
2022/04/26 07:56:58;;;;;;;6.57;3.33;;;;;;;;;;10437577;27;20039;-61
2022/04/26 08:01:56;;;;;;;5.78;2.55;;;;;;;;;;10438043;27;20039;-63
2022/04/26 08:06:56;;;;;;;4.32;2.03;;;;;;;;;;10438285;27;20039;-63
2022/04/26 08:11:54;;;;;;;4.65;2.15;;;;;;;;;;10437839;28;20277;-63
2022/04/26 08:16:55;;;;;;;4.53;2.22;;;;;;;;;;10437762;28;20082;-63
2022/04/26 08:21:53;;;;;;;3.75;2.47;;;;;;;;;;10436778;28;20047;-63
2022/04/26 08:32:09;;;;;;;4.00;2.50;;;;;;;;;;10444633;27;20075;-62
2022/04/26 08:37:08;;;;;;;4.72;2.08;;;;;;;;;;10445134;27;20079;-63
2022/04/26 08:42:08;;;;;;;3.45;2.05;;;;;;;;;;10446286;27;20503;-62
2022/04/26 08:52:23;;;;;;;3.38;1.60;;;;;;;;;;10446354;27;20078;-63
2022/04/26 08:57:23;;;;;;;2.22;1.92;;;;;;;;;;10444840;27;20452;-63
2022/04/26 09:02:22;;;;;;;7.57;2.20;;;;;;;;;;10443627;27;20051;-64
2022/04/26 09:07:30;;;;;;;4.85;1.48;;;;;;;;;;10443617;27;20078;-63
2022/04/26 09:12:30;;;;;;;4.10;1.80;;;;;;;;;;10436347;27;20071;-63
2022/04/26 09:17:28;;;;;;;3.40;2.17;;;;;;;;;;10444325;27;20070;-63
2022/04/26 09:22:28;;;;;;;5.43;2.70;;;;;;;;;;10443487;27;20067;-63
2022/04/26 09:27:26;;;;;;;2.55;1.77;;;;;;;;;;10442833;27;20101;-64
2022/04/26 09:32:26;;;;;;;2.75;1.98;;;;;;;;;;10443059;27;20110;-63
2022/04/26 09:37:28;;;;;;;7.13;2.25;;;;;;;;;;10441034;27;20093;-63
2022/04/26 09:42:30;;;;;;;2.72;1.75;;;;;;;;;;10442129;27;20070;-63
2022/04/26 09:47:36;;;;;;;1.75;1.52;;;;;;;;;;10441965;27;20079;-63
2022/04/26 09:52:34;;;;;;;5.78;1.90;;;;;;;;;;10442287;27;20070;-63
2022/04/26 09:57:33;;;;;;;4.13;1.58;;;;;;;;;;10441572;27;20074;-62
2022/04/26 10:02:38;;;;;;;1.63;1.38;;;;;;;;;;10442307;27;20071;-62
2022/04/26 10:07:37;;;;;;;4.28;2.15;;;;;;;;;;10441769;27;20079;-63
2022/04/26 10:12:36;;;;;;;2.25;1.33;;;;;;;;;;10442314;27;20066;-62
2022/04/26 10:17:34;;;;;;;3.10;1.77;;;;;;;;;;10402035;27;20047;-63
2022/04/26 10:22:51;;;;;;;2.97;1.63;;;;;;;;;;10400763;28;20273;-63
2022/04/26 10:28:04;;;;;;;2.47;1.60;;;;;;;;;;10411574;27;20098;-63
2022/04/26 10:33:24;;;;;;;2.53;1.40;;;;;;;;;;10441492;27;20074;-63
2022/04/26 10:38:22;;;;;;;3.53;1.40;;;;;;;;;;10442121;27;20043;-63
2022/04/26 10:43:21;;;;;;;4.47;1.80;;;;;;;;;;10440145;27;20051;-63
2022/04/26 10:48:27;;;;;;;6.90;1.55;;;;;;;;;;10440299;27;20495;-63
2022/04/26 10:53:45;;;;;;;2.00;1.50;;;;;;;;;;10416747;27;20070;-63
2022/04/26 10:58:51;;;;;;;5.28;2.30;;;;;;;;;;10440228;27;20070;-63
2022/04/26 11:03:55;;;;;;;4.07;2.13;;;;;;;;;;10439920;27;20073;-62
2022/04/26 11:08:53;;;;;;;;;;;;;;;;;;10421450;27;20047;-62
2022/04/26 11:14:03;;;;;;;3.28;2.00;;;;;;;;;;10440141;27;19954;-63
2022/04/26 11:19:02;;;;;;;2.03;1.52;;;;;;;;;;10439320;27;20055;-63
2022/04/26 11:29:23;;;;;;;5.65;2.17;;;;;;;;;;10438343;27;20067;-62
2022/04/26 11:34:41;;;;;;;2.33;1.70;;;;;;;;;;10438802;27;20075;-63
2022/04/26 11:39:40;;;;;;;3.13;1.20;;;;;;;;;;10431706;27;20109;-63
2022/04/26 11:44:54;;;;;;;1.80;1.13;;;;;;;;;;10433527;27;20078;-61
2022/04/26 11:49:55;;;;;;;1.65;1.13;;;;;;;;;;10437814;27;20078;-61
2022/04/26 11:54:53;;;;;;;1.95;1.50;;;;;;;;;;10435096;27;20098;-61
2022/04/26 11:59:51;;;;;;;1.70;1.50;;;;;;;;;;10425538;27;20047;-61
2022/04/26 12:04:50;;;;;;;3.00;2.22;;;;;;;;;;10438372;27;20074;-61
2022/04/26 12:09:52;;;;;;;1.63;1.48;;;;;;;;;;10429876;28;20070;-61
2022/04/26 12:14:51;;;;;;;1.63;1.10;;;;;;;;;;10426350;28;20137;-60
2022/04/26 12:19:51;;;;;;;2.83;1.80;;;;;;;;;;10436628;28;20511;-61
2022/04/26 12:24:51;;;;;;;1.50;1.00;;;;;;;;;;10437496;28;20050;-61
2022/04/26 12:29:51;;;;;;;3.65;1.05;;;;;;;;;;10436799;28;20082;-61
2022/04/26 12:34:50;;;;;;;2.45;1.48;;;;;;;;;;10437808;28;20075;-61
2022/04/26 12:39:49;;;;;;;2.50;1.10;;;;;;;;;;10436526;28;20081;-61
2022/04/26 12:44:49;;;;;;;5.13;1.60;;;;;;;;;;10435926;28;20083;-61
2022/04/26 12:55:24;;;;;;;2.88;2.20;;;;;;;;;;10437420;28;20082;-61
2022/04/26 13:00:23;;;;;;;4.80;1.40;;;;;;;;;;10436422;28;20043;-61
2022/04/26 13:05:23;;;;;;;6.43;2.97;;;;;;;;;;10437456;28;20067;-61
2022/04/26 13:10:22;;;;;;;2.88;1.30;;;;;;;;;;10438330;27;20035;-61
2022/04/26 13:15:23;;;;;;;1.45;1.35;;;;;;;;;;10443925;27;20082;-61
2022/04/26 13:20:22;;;;;;;3.65;1.50;;;;;;;;;;10443205;27;20070;-62
2022/04/26 13:25:21;;;;;;;1.95;1.33;;;;;;;;;;10443669;27;20529;-61
2022/04/26 13:30:19;;;;;;;5.53;2.00;;;;;;;;;;10444154;27;20047;-61
2022/04/26 13:35:17;;;;;;;2.20;1.65;;;;;;;;;;10432001;27;20090;-61
2022/04/26 13:40:17;;;;;;;2.60;1.77;;;;;;;;;;10441203;27;20113;-60
2022/04/26 13:45:15;;;;;;;5.47;1.88;;;;;;;;;;10444116;27;20082;-62
2022/04/26 13:50:14;;;;;;;3.58;2.42;;;;;;;;;;10443308;27;20451;-61
2022/04/26 13:55:17;;;;;;;2.95;1.60;;;;;;;;;;10442785;27;20475;-61
2022/04/26 14:00:18;;;;;;;3.15;1.73;;;;;;;;;;10442186;27;20101;-61
2022/04/26 14:05:16;;;;;;;4.78;1.70;;;;;;;;;;10441766;27;20082;-61
2022/04/26 14:10:15;;;;;;;4.50;3.17;;;;;;;;;;10442704;27;20050;-61
2022/04/26 14:25:46;;;;;;;1.98;1.73;;;;;;;;;;10435965;27;20492;-61
2022/04/26 14:30:45;;;;;;;7.55;4.03;;;;;;;;;;10440422;27;20075;-62
2022/04/26 14:35:45;;;;;;;5.05;2.15;;;;;;;;;;10440321;27;20066;-61
2022/04/26 14:40:43;;;;;;;4.35;2.00;;;;;;;;;;10440293;27;20039;-61
2022/04/26 14:45:46;;;;;;;8.43;3.78;;;;;;;;;;10439863;27;20083;-61
2022/04/26 14:50:46;;;;;;;1.98;1.50;;;;;;;;;;10438677;27;20101;-61
2022/04/26 14:55:44;;;;;;;3.95;2.08;;;;;;;;;;10439708;27;20492;-61
2022/04/26 15:00:42;;;;;;;5.50;3.13;;;;;;;;;;10439682;27;20447;-61
2022/04/26 15:05:41;;;;;;;2.22;1.45;;;;;;;;;;10439262;27;20063;-61
2022/04/26 15:10:40;;;;;;;5.85;5.18;;;;;;;;;;10439369;27;20062;-61
2022/04/26 15:20:55;;;;;;;12.32;7.22;;;;;;;;;;10438764;27;20051;-61
2022/04/26 15:25:55;;;;;;;5.28;2.92;;;;;;;;;;10437987;27;20066;-61
2022/04/26 15:30:54;;;;;;;4.30;3.25;;;;;;;;;;10438905;27;20183;-61
2022/04/26 15:35:52;;;;;;;9.50;5.97;;;;;;;;;;10436777;27;20074;-61
2022/04/26 15:40:50;;;;;;;2.72;1.95;;;;;;;;;;10438073;27;20081;-62
2022/04/26 15:45:55;;;;;;;2.53;1.98;;;;;;;;;;10438028;27;20082;-62
2022/04/26 15:50:53;;;;;;;6.20;4.82;;;;;;;;;;10438010;27;20059;-62
2022/04/26 15:55:51;;;;;;;10.63;9.32;;;;;;;;;;10437122;27;20071;-62
2022/04/26 16:00:51;;;;;;;15.35;10.50;;;;;;;;;;10437722;27;20082;-62
2022/04/26 16:05:50;;;;;;;14.18;11.15;;;;;;;;;;10437640;27;20100;-62
2022/04/26 16:21:25;;;;;;;11.65;7.93;;;;;;;;;;10437411;28;20043;-61
2022/04/26 16:26:24;;;;;;;11.35;8.15;;;;;;;;;;10436379;28;20093;-62
2022/04/26 16:31:28;;;;;;;6.78;5.43;;;;;;;;;;10435905;28;20043;-61
2022/04/26 16:36:28;;;;;;;10.07;8.30;;;;;;;;;;10436852;28;20078;-62
2022/04/26 16:41:26;;;;;;;9.88;6.25;;;;;;;;;;10436554;28;20039;-62
2022/04/26 16:46:27;;;;;;;5.35;3.47;;;;;;;;;;10440183;27;20058;-61
2022/04/26 16:51:26;;;;;;;7.10;5.47;;;;;;;;;;10443911;27;20043;-61
2022/04/26 16:56:26;;;;;;;14.10;10.02;;;;;;;;;;10443730;27;20112;-61
2022/04/26 17:01:24;;;;;;;12.77;7.93;;;;;;;;;;10443875;27;20071;-61
2022/04/26 17:06:22;;;;;;;14.95;6.72;;;;;;;;;;10444643;27;20507;-61
2022/04/26 17:16:44;;;;;;;6.18;3.55;;;;;;;;;;10442599;27;20435;-62
2022/04/26 17:21:42;;;;;;;5.35;2.60;;;;;;;;;;10424541;27;20530;-61
2022/04/26 17:26:42;;;;;;;7.75;3.53;;;;;;;;;;10422499;27;20070;-62
2022/04/26 17:31:41;;;;;;;6.75;2.60;;;;;;;;;;10424125;27;20074;-62
2022/04/26 17:36:43;;;;;;;6.00;4.28;;;;;;;;;;10427109;27;20499;-61
2022/04/26 17:42:01;;;;;;;14.13;3.03;;;;;;;;;;10420067;27;20062;-63
2022/04/26 17:47:00;;;;;;;15.30;12.52;;;;;;;;;;10430702;27;20561;-63
2022/04/26 17:52:19;;;;;;;5.80;4.10;;;;;;;;;;10422168;27;20067;-64
2022/04/26 17:57:17;;;;;;;6.85;2.50;;;;;;;;;;10420770;27;20066;-64
2022/04/26 18:02:16;;;;;;;7.80;3.80;;;;;;;;;;10421294;27;20094;-63
2022/04/26 18:07:14;;;;;;;13.45;8.05;;;;;;;;;;10418782;27;20063;-63
2022/04/26 18:12:14;;;;;;;14.88;4.97;;;;;;;;;;10428369;27;20067;-62
2022/04/26 18:17:13;;;;;;;5.93;3.60;;;;;;;;;;10432534;27;20074;-62
2022/04/26 18:22:11;;;;;;;3.50;2.78;;;;;;;;;;10427630;27;20075;-62
2022/04/26 18:27:09;;;;;;;8.95;2.38;;;;;;;;;;10414547;27;20471;-62
2022/04/26 18:32:09;;;;;;;3.80;2.97;;;;;;;;;;10434319;27;20538;-63
2022/04/26 18:37:07;;;;;;;11.07;7.45;;;;;;;;;;10417910;27;20074;-62
2022/04/26 18:42:06;;;;;;;9.77;8.35;;;;;;;;;;10426887;27;20082;-63
2022/04/26 18:47:04;;;;;;;10.35;7.10;;;;;;;;;;10424212;27;20063;-63
2022/04/26 18:52:04;;;;;;;8.88;4.30;;;;;;;;;;10409011;27;20082;-63
2022/04/26 18:57:02;;;;;;;6.90;4.68;;;;;;;;;;10419513;27;20066;-64
2022/04/26 19:02:01;;;;;;;5.28;2.22;;;;;;;;;;10420264;27;20059;-64
2022/04/26 19:06:59;;;;;;;5.75;1.88;;;;;;;;;;10423304;27;20055;-64
2022/04/26 19:12:18;;;;;;;2.53;1.58;;;;;;;;;;10416774;27;20502;-64
2022/04/26 19:17:19;;;;;;;8.73;2.97;;;;;;;;;;10430788;27;20325;-62
2022/04/26 19:22:17;;;;;;;4.60;1.95;;;;;;;;;;10416341;27;20075;-62
2022/04/26 19:27:16;;;;;;;1.70;1.60;;;;;;;;;;10422278;27;20059;-62
2022/04/26 19:32:15;;;;;;;5.40;2.10;;;;;;;;;;10417902;27;20055;-62
2022/04/26 19:37:13;;;;;;;3.75;2.08;;;;;;;;;;10417746;27;20085;-63
2022/04/26 19:42:11;;;;;;;3.85;1.38;;;;;;;;;;10416476;27;20090;-62
2022/04/26 19:47:11;;;;;;;4.55;1.70;;;;;;;;;;10420363;27;20055;-62
2022/04/26 19:52:09;;;;;;;3.05;1.50;;;;;;;;;;10420484;27;20504;-62
2022/04/26 19:57:07;;;;;;;2.42;1.60;;;;;;;;;;10417863;27;20081;-62
2022/04/26 20:02:10;;;;;;;2.45;1.45;;;;;;;;;;10427084;27;20055;-64
2022/04/26 20:07:12;;;;;;;2.85;1.60;;;;;;;;;;10423506;27;20055;-63
2022/04/26 20:12:11;;;;;;;5.55;2.33;;;;;;;;;;10421869;28;20062;-63
2022/04/26 20:17:09;;;;;;;2.33;1.60;;;;;;;;;;10429139;28;20062;-63
2022/04/26 20:22:07;;;;;;;3.42;1.58;;;;;;;;;;10425649;27;20065;-62
2022/04/26 20:32:25;;;;;;;3.63;1.80;;;;;;;;;;10439334;27;20058;-63
2022/04/26 20:37:23;;;;;;;4.63;1.60;;;;;;;;;;10440905;27;20070;-63
2022/04/26 20:42:24;;;;;;;3.03;2.00;;;;;;;;;;10436017;27;20526;-63
2022/04/26 20:47:22;;;;;;;3.17;1.55;;;;;;;;;;10441505;27;20101;-64
2022/04/26 20:52:20;;;;;;;7.65;1.90;;;;;;;;;;10443327;27;20066;-63
2022/04/26 20:57:18;;;;;;;2.50;1.95;;;;;;;;;;10441189;27;20066;-63
2022/04/26 21:02:18;;;;;;;3.72;1.60;;;;;;;;;;10444295;27;20075;-63
2022/04/26 21:07:16;;;;;;;2.47;1.80;;;;;;;;;;10424715;27;20046;-62
2022/04/26 21:12:15;;;;;;;1.75;1.60;;;;;;;;;;10442335;27;20074;-62
2022/04/26 21:17:14;;;;;;;5.57;2.00;;;;;;;;;;10444235;27;20079;-62
2022/04/26 21:22:14;;;;;;;2.50;1.50;;;;;;;;;;10443910;27;20043;-63
2022/04/26 21:27:12;;;;;;;2.47;1.42;;;;;;;;;;10442498;27;20063;-62
2022/04/26 21:32:10;;;;;;;3.88;1.80;;;;;;;;;;10434406;27;20039;-62
2022/04/26 21:37:09;;;;;;;3.88;1.60;;;;;;;;;;10440802;27;20065;-62
2022/04/26 21:42:09;;;;;;;6.38;2.22;;;;;;;;;;10440797;27;20090;-62
2022/04/26 21:47:08;;;;;;;4.53;1.27;;;;;;;;;;10441993;27;20082;-62
2022/04/26 21:52:07;;;;;;;4.68;1.85;;;;;;;;;;10441803;27;20086;-63
2022/04/26 21:57:05;;;;;;;5.07;1.70;;;;;;;;;;10441225;27;20070;-62
2022/04/26 22:02:05;;;;;;;3.65;2.53;;;;;;;;;;10441042;27;20059;-63
2022/04/26 22:07:04;;;;;;;4.80;2.45;;;;;;;;;;10440405;27;20078;-62
2022/04/26 22:12:02;;;;;;;4.90;1.90;;;;;;;;;;10440796;27;20035;-59
2022/04/26 22:17:00;;;;;;;4.03;2.53;;;;;;;;;;10439703;27;20530;-62
2022/04/26 22:22:00;;;;;;;6.45;2.47;;;;;;;;;;10439184;27;20101;-61
2022/04/26 22:26:58;;;;;;;7.28;2.88;;;;;;;;;;10440919;27;20514;-61
2022/04/26 22:31:56;;;;;;;5.60;2.47;;;;;;;;;;10432804;27;20049;-61
2022/04/26 22:36:55;;;;;;;3.13;2.03;;;;;;;;;;10440405;27;20503;-61
2022/04/26 22:41:54;;;;;;;2.35;2.15;;;;;;;;;;10438389;27;20050;-61
2022/04/26 22:46:52;;;;;;;4.95;2.33;;;;;;;;;;10438488;27;20201;-62
2022/04/26 22:51:51;;;;;;;3.58;2.15;;;;;;;;;;10439202;27;20395;-61
2022/04/26 22:56:49;;;;;;;2.92;2.10;;;;;;;;;;10439029;27;20659;-61
2022/04/26 23:01:49;;;;;;;3.58;3.20;;;;;;;;;;10435647;27;20043;-61
2022/04/26 23:06:48;;;;;;;4.32;2.63;;;;;;;;;;10434448;27;20075;-62
2022/04/26 23:11:46;;;;;;;17.02;11.27;;;;;;;;;;10437607;27;20066;-62
2022/04/26 23:16:48;;;;;;;9.73;6.53;;;;;;;;;;10438543;27;20070;-63
2022/04/26 23:21:47;;;;;;;6.00;3.28;;;;;;;;;;10439279;27;20071;-63
2022/04/26 23:26:47;;;;;;;3.03;2.22;;;;;;;;;;10437001;27;20047;-62
2022/04/26 23:31:50;;;;;;;7.50;3.40;;;;;;;;;;10429372;27;20086;-62
2022/04/26 23:36:51;;;;;;;9.52;4.40;;;;;;;;;;10434921;27;20071;-62
2022/04/26 23:41:49;;;;;;;3.45;3.00;;;;;;;;;;10437937;27;20522;-63
2022/04/26 23:46:49;;;;;;;3.63;2.20;;;;;;;;;;10434075;27;20491;-62
2022/04/26 23:57:03;;;;;;;6.47;1.95;;;;;;;;;;10435141;27;20066;-61
